Phu Bai Airport
VVPB : now visible

Airfield :











YOU CAN JOIN US ON...

 
LOGIN :

Register | Disclaimer

   EN    FR    IT 

 









Legend :    VFR   Marginal VFR   IFR   Intensive IFR   Very Intensive IFR
Visi :
Ceiling :
>= 8 km
>= 3000ft
5 to 8 km
1000 to 3000 ft
1500m to 5 km
500 to 1000 ft
800 to 1500m
200 to 500 ft
< 800m
< 200 ft
Symbols :   Thunderstorms  Fog  Heavy snow  Heavy precipitations  Wind > 20 kt






- Airport Elevation : 48 ft
- IATA code : HUI


VVPB - Phu Bai

CURRENT METAR :
  • 210430Z 10008KT 9999 FEW015 35/24 Q1013 NOSIG

EXPIRED METARs :
  • 210400Z 05004KT 9999 FEW015 35/24 Q1013 NOSIG
  • 210330Z 13004KT 9999 FEW015 35/24 Q1014 NOSIG
  • 210300Z 13005KT 9999 FEW020 34/24 Q1015 NOSIG
  • 210230Z 14004KT 9999 FEW020 33/23 Q1015 NOSIG
  • 210200Z 21004KT 9999 FEW020 32/24 Q1015 NOSIG

TAF TAF VVPB
Valid from the 21 at 00:00 until the 22 at 00:00 UTC


202300Z 2100/2124 04006KT 4000 BR FEW015 SCT060
BECMG 2100/2101 6000 NSW
TEMPO 2109/2111 TS FEW015 FEW017CB SCT060



MET'MAP, your aeronautical weather chart ! - Copyright ORBIFLY December 2007 - Disclaimer

ORBIFLY MET'MAP TEAM :

Programming & Development : Alexandra Zaïnal
Concept & Development : Baudouin d'Aumeries
Co-Development & Prog : Marc-Olivier Méhu
Technical & hardware support : Manuel Goepfert

Contact : metmap@orbifly.com




SOURCES & CREDITS :

   NOAA       Earth
Advisory